createdAt,value
2019-03-26T00:00:48.858Z,56.14
2019-03-26T00:03:18.038Z,55.33
2019-03-26T00:05:47.318Z,54.76
2019-03-26T00:08:16.551Z,52.09
2019-03-26T00:10:45.686Z,52.85
2019-03-26T00:13:14.863Z,52.58
2019-03-26T00:15:43.999Z,51.64
2019-03-26T00:18:13.195Z,51.81
2019-03-26T00:20:42.574Z,51.62
2019-03-26T00:23:11.957Z,52.95
2019-03-26T00:25:41.617Z,51.51
2019-03-26T00:28:10.807Z,53.62
2019-03-26T00:30:39.965Z,53.20
2019-03-26T00:33:09.431Z,54.81
2019-03-26T00:35:39.489Z,56.19
2019-03-26T00:38:08.642Z,55.25
2019-03-26T00:40:40.173Z,57.02
2019-03-26T00:43:09.241Z,54.55
2019-03-26T00:45:38.873Z,55.36
2019-03-26T00:48:08.263Z,54.85
2019-03-26T00:50:37.479Z,53.94
2019-03-26T00:53:06.654Z,53.78
2019-03-26T00:55:35.766Z,59.18
2019-03-26T00:58:05.399Z,58.34
2019-03-26T01:00:44.272Z,55.08
2019-03-26T01:03:14.197Z,56.49
2019-03-26T01:05:43.722Z,54.06
2019-03-26T01:08:12.940Z,53.99
2019-03-26T01:10:42.388Z,55.98
2019-03-26T01:13:11.599Z,57.08
2019-03-26T01:15:41.094Z,55.74
2019-03-26T01:18:10.498Z,60.86
2019-03-26T01:20:40.253Z,56.75
2019-03-26T01:23:09.471Z,57.81
2019-03-26T01:25:39.737Z,55.03
2019-03-26T01:28:08.883Z,56.01
2019-03-26T01:30:38.728Z,54.63
2019-03-26T01:33:07.890Z,56.38
2019-03-26T01:35:37.151Z,55.91
2019-03-26T01:38:06.287Z,57.73
2019-03-26T01:40:35.437Z,56.12
2019-03-26T01:43:04.644Z,60.44
2019-03-26T01:45:34.092Z,61.20
2019-03-26T01:48:03.290Z,58.42
2019-03-26T01:50:32.518Z,59.07
2019-03-26T01:53:02.137Z,59.77
2019-03-26T01:55:31.289Z,59.42
2019-03-26T01:58:00.437Z,59.46
2019-03-26T02:00:29.895Z,55.99
2019-03-26T02:02:59.079Z,55.93
2019-03-26T02:05:28.231Z,56.37
2019-03-26T02:07:57.602Z,55.09
2019-03-26T02:10:26.759Z,54.73
2019-03-26T02:12:55.911Z,55.49
2019-03-26T02:15:32.355Z,56.80
2019-03-26T02:18:01.723Z,56.93
2019-03-26T02:20:31.129Z,60.55
2019-03-26T02:23:00.282Z,55.11
2019-03-26T02:25:29.811Z,59.30
2019-03-26T02:27:58.953Z,58.08
2019-03-26T02:30:28.965Z,57.05
2019-03-26T02:32:58.899Z,58.94
2019-03-26T02:35:28.733Z,57.82
2019-03-26T02:37:58.162Z,57.00
2019-03-26T02:40:27.609Z,56.64
2019-03-26T02:42:57.120Z,58.04
2019-03-26T02:45:26.373Z,58.92
2019-03-26T02:47:55.743Z,57.72
2019-03-26T02:50:24.977Z,58.88
2019-03-26T02:52:54.459Z,58.47
2019-03-26T02:55:24.020Z,53.83
2019-03-26T02:57:53.877Z,60.06
2019-03-26T03:00:23.115Z,55.52
2019-03-26T03:02:52.273Z,58.03
2019-03-26T03:05:34.242Z,56.25
2019-03-26T03:07:53.588Z,55.58
2019-03-26T03:10:22.785Z,56.03
2019-03-26T03:12:52.876Z,55.04
2019-03-26T03:15:22.081Z,55.84
2019-03-26T03:17:51.225Z,55.91
2019-03-26T03:20:20.381Z,55.57
2019-03-26T03:22:49.812Z,54.72
2019-03-26T03:25:19.307Z,55.16
2019-03-26T03:27:48.715Z,53.26
2019-03-26T03:30:20.097Z,55.50
2019-03-26T03:32:50.011Z,53.88
2019-03-26T03:35:19.178Z,56.16
2019-03-26T03:37:48.560Z,54.81
2019-03-26T03:40:17.843Z,54.48
2019-03-26T03:42:47.293Z,57.40
2019-03-26T03:45:21.826Z,54.99
2019-03-26T03:47:51.463Z,52.31
2019-03-26T03:50:20.899Z,53.63
2019-03-26T03:52:50.862Z,55.39
2019-03-26T03:55:20.094Z,54.82
2019-03-26T03:57:52.761Z,51.96
2019-03-26T04:03:14.576Z,54.29
2019-03-26T04:05:43.702Z,53.03
2019-03-26T04:08:12.957Z,54.18
2019-03-26T04:10:42.367Z,54.77
2019-03-26T04:13:12.529Z,54.27
2019-03-26T04:15:41.841Z,54.94
2019-03-26T04:18:11.040Z,54.43
2019-03-26T04:20:40.251Z,57.04
2019-03-26T04:23:09.539Z,54.40
2019-03-26T04:25:39.683Z,55.31
2019-03-26T04:28:08.849Z,54.50
2019-03-26T04:30:38.027Z,53.12
2019-03-26T04:33:07.492Z,50.94
2019-03-26T04:35:36.709Z,55.08
2019-03-26T04:38:05.968Z,52.22
2019-03-26T04:40:35.983Z,50.26
2019-03-26T04:43:05.307Z,49.25
2019-03-26T04:45:34.671Z,51.87
2019-03-26T04:48:03.886Z,52.09
2019-03-26T04:50:33.053Z,53.41
2019-03-26T04:53:02.233Z,55.41
2019-03-26T04:55:31.450Z,54.92
2019-03-26T04:58:00.694Z,52.71
2019-03-26T05:00:29.909Z,53.23
2019-03-26T05:02:59.300Z,53.23
2019-03-26T05:05:28.536Z,52.26
2019-03-26T05:07:57.724Z,52.80
2019-03-26T05:10:27.193Z,54.77
2019-03-26T05:12:56.426Z,52.61
2019-03-26T05:15:25.566Z,56.02
2019-03-26T05:17:56.611Z,53.24
2019-03-26T05:20:26.128Z,51.89
2019-03-26T05:22:55.350Z,51.43
2019-03-26T05:25:24.801Z,50.98
2019-03-26T05:27:54.457Z,50.25
2019-03-26T05:30:23.635Z,48.45
2019-03-26T05:32:52.826Z,48.27
2019-03-26T05:35:22.283Z,47.58
2019-03-26T05:37:51.918Z,48.52
2019-03-26T05:40:21.412Z,49.98
2019-03-26T05:42:50.550Z,49.36
2019-03-26T05:45:19.742Z,48.38
2019-03-26T05:47:49.174Z,48.56
2019-03-26T05:50:18.434Z,49.85
2019-03-26T05:52:47.583Z,49.61
2019-03-26T05:55:17.031Z,49.58
2019-03-26T05:57:46.342Z,53.69
2019-03-26T06:00:26.176Z,51.82
2019-03-26T06:03:02.894Z,51.75
2019-03-26T06:05:32.498Z,50.77
2019-03-26T06:08:01.701Z,47.75
2019-03-26T06:10:30.886Z,50.53
2019-03-26T06:13:00.094Z,48.00
2019-03-26T06:15:29.589Z,50.65
2019-03-26T06:18:02.261Z,49.86
2019-03-26T06:20:32.587Z,47.24
2019-03-26T06:23:04.648Z,51.37
2019-03-26T06:25:33.927Z,52.71
2019-03-26T06:28:03.292Z,50.51
2019-03-26T06:30:32.560Z,49.66
2019-03-26T06:33:01.720Z,54.72
2019-03-26T06:35:31.033Z,52.78
2019-03-26T06:38:00.866Z,52.92
2019-03-26T06:40:30.438Z,49.49
2019-03-26T06:43:09.065Z,50.98
2019-03-26T06:45:38.190Z,50.90
2019-03-26T06:48:07.638Z,53.92
2019-03-26T06:50:37.138Z,54.89
2019-03-26T06:53:06.979Z,51.57
2019-03-26T06:55:36.222Z,51.91
2019-03-26T06:58:05.684Z,50.69
2019-03-26T07:00:36.057Z,49.80
2019-03-26T07:03:06.813Z,52.46
2019-03-26T07:05:36.252Z,53.40
2019-03-26T07:08:05.524Z,53.10
2019-03-26T07:10:34.793Z,50.04
2019-03-26T07:13:04.038Z,52.92
2019-03-26T07:15:33.519Z,52.47
2019-03-26T07:18:02.745Z,52.77
2019-03-26T07:20:32.735Z,52.50
2019-03-26T07:23:02.283Z,49.11
2019-03-26T07:25:31.644Z,51.38
2019-03-26T07:28:00.824Z,52.15
2019-03-26T07:30:37.636Z,50.69
2019-03-26T07:33:07.601Z,52.13
2019-03-26T07:35:36.864Z,53.23
2019-03-26T07:38:06.220Z,51.07
2019-03-26T07:40:35.777Z,54.96
2019-03-26T07:43:05.295Z,56.13
2019-03-26T07:45:34.570Z,55.92
2019-03-26T07:48:04.072Z,55.01
2019-03-26T07:50:33.258Z,54.37
2019-03-26T07:53:02.651Z,53.00
2019-03-26T07:55:32.073Z,54.41
2019-03-26T07:58:01.207Z,56.30
2019-03-26T08:00:34.455Z,53.96
2019-03-26T08:03:03.681Z,54.13
2019-03-26T08:05:33.595Z,51.10
2019-03-26T08:08:02.983Z,50.26
2019-03-26T08:10:32.169Z,50.84
2019-03-26T08:13:01.346Z,50.71
2019-03-26T08:15:30.674Z,51.50
2019-03-26T08:17:59.830Z,48.87
2019-03-26T08:20:29.118Z,49.35
2019-03-26T08:22:58.284Z,50.68
2019-03-26T08:25:27.472Z,49.31
2019-03-26T08:27:56.668Z,48.78
2019-03-26T08:30:25.986Z,47.50
2019-03-26T08:32:55.280Z,48.13
2019-03-26T08:35:24.492Z,50.39
2019-03-26T08:37:53.835Z,51.64
2019-03-26T08:40:23.558Z,51.71
2019-03-26T08:42:52.817Z,52.65
2019-03-26T08:45:21.953Z,49.76
2019-03-26T08:47:51.154Z,49.16
2019-03-26T08:50:20.391Z,49.50
2019-03-26T08:52:49.653Z,45.49
2019-03-26T08:55:18.809Z,43.66
2019-03-26T08:57:48.198Z,42.83
2019-03-26T09:00:17.647Z,41.05
2019-03-26T09:02:46.804Z,40.60
2019-03-26T09:05:16.330Z,40.43
2019-03-26T09:07:45.795Z,39.77
2019-03-26T09:10:15.304Z,38.98
2019-03-26T09:12:44.571Z,37.26
2019-03-26T09:15:14.795Z,39.51
2019-03-26T09:17:44.924Z,39.04
2019-03-26T09:20:14.506Z,41.66
2019-03-26T09:22:43.785Z,44.40
2019-03-26T09:25:13.471Z,44.40
2019-03-26T09:27:42.621Z,44.56
2019-03-26T09:30:12.485Z,45.15
2019-03-26T09:32:42.013Z,45.89
2019-03-26T09:35:11.622Z,47.30
2019-03-26T09:37:40.739Z,44.95
2019-03-26T09:40:10.423Z,45.95
2019-03-26T09:42:40.301Z,45.23
2019-03-26T09:45:10.775Z,45.78
2019-03-26T09:47:40.151Z,43.46
2019-03-26T09:50:09.658Z,42.39
2019-03-26T09:52:39.157Z,40.04
2019-03-26T09:55:08.809Z,41.88
2019-03-26T09:57:37.941Z,41.91
2019-03-26T10:00:08.007Z,40.20
2019-03-26T10:02:37.204Z,40.83
2019-03-26T10:05:07.194Z,42.77
2019-03-26T10:07:36.448Z,41.22
2019-03-26T10:10:06.219Z,37.86
2019-03-26T10:12:35.399Z,37.13
2019-03-26T10:15:05.297Z,37.13
2019-03-26T10:17:34.473Z,36.36
2019-03-26T10:20:03.774Z,35.00
2019-03-26T10:22:32.962Z,33.63
2019-03-26T10:25:02.438Z,36.17
2019-03-26T10:27:31.564Z,35.86
2019-03-26T10:30:00.930Z,35.34
2019-03-26T10:32:30.413Z,35.21
2019-03-26T10:34:59.561Z,34.91
2019-03-26T10:37:29.337Z,37.00
2019-03-26T10:39:58.475Z,39.11
2019-03-26T10:42:27.654Z,38.41
2019-03-26T10:44:57.053Z,38.64
2019-03-26T10:47:26.238Z,38.90
2019-03-26T10:49:55.480Z,41.43
2019-03-26T10:52:24.699Z,41.51
2019-03-26T10:54:54.445Z,42.12
2019-03-26T10:57:23.671Z,41.88
2019-03-26T10:59:53.233Z,41.56
2019-03-26T11:02:22.409Z,40.71
2019-03-26T11:04:51.620Z,40.85
2019-03-26T11:07:20.811Z,42.09
2019-03-26T11:09:50.875Z,41.80
2019-03-26T11:12:20.871Z,42.42
2019-03-26T11:14:50.678Z,43.65
2019-03-26T11:17:19.921Z,43.43
2019-03-26T11:19:49.152Z,40.38
2019-03-26T11:22:18.299Z,40.90
2019-03-26T11:24:47.539Z,41.11
2019-03-26T11:27:16.748Z,40.95
2019-03-26T11:29:46.083Z,39.31
2019-03-26T11:32:15.284Z,41.15
2019-03-26T11:34:44.535Z,37.72
2019-03-26T11:37:13.999Z,39.27
2019-03-26T11:39:43.272Z,36.68
2019-03-26T11:42:12.506Z,38.40
2019-03-26T11:44:41.679Z,38.42
2019-03-26T11:47:10.842Z,40.68
2019-03-26T11:49:40.018Z,41.44
2019-03-26T11:52:09.731Z,41.32
2019-03-26T11:54:38.908Z,40.94
2019-03-26T11:57:08.093Z,41.07
2019-03-26T11:59:37.265Z,39.46
2019-03-26T12:02:07.916Z,41.03
2019-03-26T12:04:37.168Z,39.31
2019-03-26T12:07:06.423Z,40.12
2019-03-26T12:09:45.692Z,41.22
2019-03-26T12:12:06.844Z,40.18
2019-03-26T12:14:36.008Z,41.52
2019-03-26T12:17:06.003Z,42.83
2019-03-26T12:19:35.399Z,43.88
2019-03-26T12:22:04.695Z,44.12
2019-03-26T12:24:33.821Z,43.13
2019-03-26T12:27:03.168Z,43.04
2019-03-26T12:29:32.344Z,43.77
2019-03-26T12:32:01.556Z,42.03
2019-03-26T12:34:30.739Z,42.62
2019-03-26T12:37:00.003Z,44.04
2019-03-26T12:39:29.477Z,43.71
2019-03-26T12:41:58.918Z,44.16
2019-03-26T12:44:29.321Z,42.68
2019-03-26T12:46:58.599Z,44.41
2019-03-26T12:49:30.578Z,42.89
2019-03-26T12:51:59.891Z,43.10
2019-03-26T12:54:29.153Z,45.00
2019-03-26T12:56:58.388Z,43.70
2019-03-26T12:59:27.593Z,43.50
2019-03-26T13:01:57.695Z,43.50
2019-03-26T13:04:26.923Z,42.47
2019-03-26T13:06:56.769Z,43.36
2019-03-26T13:09:26.014Z,42.29
2019-03-26T13:11:55.298Z,42.29
2019-03-26T13:14:24.637Z,43.32
2019-03-26T13:16:53.849Z,46.29
2019-03-26T13:19:23.120Z,46.42
2019-03-26T13:21:52.758Z,44.74
2019-03-26T13:24:21.938Z,44.98
2019-03-26T13:26:51.183Z,45.96
2019-03-26T13:29:21.046Z,45.60
2019-03-26T13:31:50.389Z,44.99
2019-03-26T13:34:19.601Z,46.36
2019-03-26T13:36:48.769Z,45.69
2019-03-26T13:39:18.260Z,44.73
2019-03-26T13:41:47.900Z,45.55
2019-03-26T13:44:17.449Z,45.45
2019-03-26T13:46:46.637Z,48.39
2019-03-26T13:49:15.820Z,46.69
2019-03-26T13:51:45.711Z,45.00
2019-03-26T13:54:20.796Z,43.95
2019-03-26T13:56:49.939Z,47.80
2019-03-26T13:59:19.873Z,47.20
2019-03-26T14:01:49.131Z,47.44
2019-03-26T14:04:18.478Z,46.73
2019-03-26T14:06:47.908Z,46.25
2019-03-26T14:09:22.500Z,47.02
2019-03-26T14:11:52.460Z,45.72
2019-03-26T14:14:22.250Z,47.61
2019-03-26T14:16:51.738Z,46.73
2019-03-26T14:19:21.262Z,48.86
2019-03-26T14:21:50.558Z,50.20
2019-03-26T14:24:19.813Z,46.67
2019-03-26T14:26:48.992Z,47.72
2019-03-26T14:29:18.185Z,49.27
2019-03-26T14:31:47.468Z,50.92
2019-03-26T14:34:16.655Z,53.01
2019-03-26T14:36:46.550Z,54.08
2019-03-26T14:39:15.685Z,54.61
2019-03-26T14:41:45.212Z,52.97
2019-03-26T14:44:14.713Z,55.17
2019-03-26T14:46:43.998Z,53.71
2019-03-26T14:49:13.151Z,51.76
2019-03-26T14:51:42.745Z,55.16
2019-03-26T14:54:12.269Z,53.78
2019-03-26T14:56:41.506Z,52.96
2019-03-26T14:59:11.955Z,52.77
2019-03-26T15:01:41.088Z,55.48
2019-03-26T15:04:10.290Z,52.36
2019-03-26T15:06:39.548Z,52.78
2019-03-26T15:09:09.962Z,52.70
2019-03-26T15:11:40.840Z,51.03
2019-03-26T15:14:10.525Z,51.46
2019-03-26T15:16:40.260Z,53.32
2019-03-26T15:19:10.732Z,52.22
2019-03-26T15:21:40.848Z,51.70
2019-03-26T15:24:11.521Z,53.22
2019-03-26T15:26:41.096Z,54.25
2019-03-26T15:29:11.955Z,52.31
2019-03-26T15:31:41.161Z,54.58
2019-03-26T15:34:10.387Z,52.75
2019-03-26T15:36:40.306Z,52.72
2019-03-26T15:39:11.225Z,53.25
2019-03-26T15:41:40.630Z,51.82
2019-03-26T15:44:09.844Z,50.83
2019-03-26T15:46:39.218Z,51.57
2019-03-26T15:49:08.681Z,52.47
2019-03-26T15:51:38.079Z,53.01
2019-03-26T15:54:07.754Z,54.17
2019-03-26T15:56:37.983Z,52.33
2019-03-26T15:59:08.408Z,54.22
2019-03-26T16:01:41.398Z,53.43
2019-03-26T16:04:10.750Z,55.50
2019-03-26T16:06:40.323Z,54.41
2019-03-26T16:09:11.019Z,55.40
2019-03-26T16:11:40.395Z,54.91
2019-03-26T16:14:09.884Z,53.18
2019-03-26T16:16:39.186Z,54.62
2019-03-26T16:19:08.697Z,55.99
2019-03-26T16:21:38.357Z,57.39
2019-03-26T16:24:07.799Z,57.35
2019-03-26T16:26:37.778Z,57.05
2019-03-26T16:29:06.978Z,55.96
2019-03-26T16:31:36.452Z,56.02
2019-03-26T16:34:05.660Z,54.97
2019-03-26T16:36:35.509Z,52.38
2019-03-26T16:39:06.272Z,55.17
2019-03-26T16:41:48.070Z,53.30
2019-03-26T16:44:06.371Z,55.11
2019-03-26T16:46:36.593Z,53.95
2019-03-26T16:49:05.976Z,53.63
2019-03-26T16:51:52.693Z,52.65
2019-03-26T16:54:22.685Z,54.58
2019-03-26T16:56:52.144Z,56.03
2019-03-26T16:59:21.868Z,54.57
2019-03-26T17:01:51.039Z,54.69
2019-03-26T17:04:20.928Z,53.24
2019-03-26T17:06:51.107Z,52.07
2019-03-26T17:09:20.754Z,52.36
2019-03-26T17:12:02.429Z,55.64
2019-03-26T17:14:24.937Z,55.62
2019-03-26T17:16:54.323Z,52.09
2019-03-26T17:19:23.786Z,55.18
2019-03-26T17:21:53.063Z,55.85
2019-03-26T17:24:22.221Z,53.19
2019-03-26T17:26:51.602Z,56.35
2019-03-26T17:29:20.812Z,55.11
2019-03-26T17:31:50.330Z,54.81
2019-03-26T17:34:19.560Z,54.98
2019-03-26T17:36:49.727Z,56.11
2019-03-26T17:39:19.136Z,55.51
2019-03-26T17:41:48.367Z,54.16
2019-03-26T17:44:17.507Z,53.50
2019-03-26T17:46:46.707Z,52.89
2019-03-26T17:49:15.885Z,53.58
2019-03-26T17:51:45.059Z,53.93
2019-03-26T17:54:14.233Z,54.98
2019-03-26T17:56:47.256Z,53.63
2019-03-26T17:59:15.379Z,53.75
2019-03-26T18:01:44.668Z,56.54
2019-03-26T18:04:14.624Z,53.60
2019-03-26T18:06:44.494Z,53.14
2019-03-26T18:09:13.709Z,52.87
2019-03-26T18:11:42.912Z,57.19
2019-03-26T18:14:12.484Z,54.60
2019-03-26T18:16:41.969Z,55.93
2019-03-26T18:19:12.361Z,55.75
2019-03-26T18:21:51.346Z,53.63
2019-03-26T18:24:15.436Z,56.52
2019-03-26T18:26:44.575Z,55.93
2019-03-26T18:29:14.449Z,54.85
2019-03-26T18:31:44.198Z,53.74
2019-03-26T18:34:13.339Z,52.67
2019-03-26T18:36:42.465Z,53.28
2019-03-26T18:39:11.603Z,54.94
2019-03-26T18:41:40.797Z,53.53
2019-03-26T18:44:10.033Z,52.06
2019-03-26T18:46:40.134Z,55.80
2019-03-26T18:49:09.293Z,52.21
2019-03-26T18:51:38.454Z,52.86
2019-03-26T18:54:07.614Z,52.34
2019-03-26T18:56:36.731Z,52.64
2019-03-26T18:59:05.917Z,54.28
2019-03-26T19:01:35.071Z,55.04
2019-03-26T19:04:04.222Z,55.01
2019-03-26T19:06:33.893Z,52.21
2019-03-26T19:09:03.075Z,54.26
2019-03-26T19:11:32.216Z,51.97
2019-03-26T19:14:01.366Z,54.35
2019-03-26T19:16:30.511Z,55.17
2019-03-26T19:18:59.920Z,52.74
2019-03-26T19:21:29.111Z,53.55
2019-03-26T19:24:04.294Z,50.84
2019-03-26T19:26:29.603Z,51.81
2019-03-26T19:28:59.392Z,51.95
2019-03-26T19:31:28.761Z,51.13
2019-03-26T19:33:57.891Z,52.84
2019-03-26T19:36:27.038Z,56.76
2019-03-26T19:38:56.193Z,54.92
2019-03-26T19:41:25.327Z,52.81
2019-03-26T19:43:54.843Z,55.98
2019-03-26T19:46:24.316Z,51.94
2019-03-26T19:48:53.443Z,55.70
2019-03-26T19:51:22.576Z,53.22
2019-03-26T19:53:52.494Z,55.35
2019-03-26T19:56:21.681Z,53.33
2019-03-26T19:58:51.069Z,53.58
2019-03-26T20:01:20.321Z,54.10
2019-03-26T20:03:49.470Z,51.10
2019-03-26T20:06:18.602Z,52.50
2019-03-26T20:08:47.731Z,51.58
2019-03-26T20:11:16.886Z,50.41
2019-03-26T20:13:46.001Z,50.85
2019-03-26T20:16:15.138Z,51.60
2019-03-26T20:18:44.521Z,53.78
2019-03-26T20:21:14.345Z,55.21
2019-03-26T20:23:43.698Z,54.95
2019-03-26T20:26:13.085Z,55.09
2019-03-26T20:28:42.227Z,50.40
2019-03-26T20:31:11.439Z,50.48
2019-03-26T20:33:42.463Z,55.28
2019-03-26T20:36:11.437Z,51.57
2019-03-26T20:38:41.798Z,53.29
2019-03-26T20:41:11.043Z,54.05
2019-03-26T20:43:40.166Z,51.78
2019-03-26T20:46:09.389Z,50.81
2019-03-26T20:48:38.750Z,50.53
2019-03-26T20:51:07.900Z,52.34
2019-03-26T20:53:37.488Z,50.04
2019-03-26T20:56:07.610Z,51.05
2019-03-26T20:58:37.733Z,49.47
2019-03-26T21:01:07.137Z,48.60
2019-03-26T21:03:36.734Z,50.99
2019-03-26T21:06:06.932Z,50.15
2019-03-26T21:08:36.071Z,51.11
2019-03-26T21:11:05.460Z,51.97
2019-03-26T21:13:35.027Z,52.07
2019-03-26T21:16:05.385Z,50.19
2019-03-26T21:18:34.750Z,50.98
2019-03-26T21:21:03.954Z,50.28
2019-03-26T21:23:33.876Z,52.72
2019-03-26T21:26:03.030Z,50.97
2019-03-26T21:28:32.679Z,50.62
2019-03-26T21:31:02.030Z,49.52
2019-03-26T21:33:31.425Z,49.95
2019-03-26T21:36:01.274Z,50.58
2019-03-26T21:38:30.482Z,53.22
2019-03-26T21:40:59.883Z,51.11
2019-03-26T21:43:29.289Z,52.45
2019-03-26T21:45:58.946Z,54.20
2019-03-26T21:48:30.488Z,49.89
2019-03-26T21:50:59.689Z,49.57
2019-03-26T21:53:28.848Z,49.80
2019-03-26T21:56:06.398Z,50.41
2019-03-26T21:58:29.541Z,50.63
2019-03-26T22:00:58.721Z,48.63
2019-03-26T22:03:27.898Z,47.13
2019-03-26T22:05:57.273Z,48.92
2019-03-26T22:08:26.457Z,50.29
2019-03-26T22:10:55.595Z,51.34
2019-03-26T22:13:24.743Z,50.08
2019-03-26T22:15:54.111Z,48.81
2019-03-26T22:18:23.242Z,48.69
2019-03-26T22:20:52.413Z,51.84
2019-03-26T22:23:21.567Z,51.30
2019-03-26T22:25:50.944Z,50.76
2019-03-26T22:28:20.347Z,50.47
2019-03-26T22:30:49.501Z,49.89
2019-03-26T22:33:18.918Z,50.92
2019-03-26T22:35:48.744Z,49.43
2019-03-26T22:38:18.446Z,52.36
2019-03-26T22:40:47.576Z,50.45
2019-03-26T22:43:16.729Z,50.83
2019-03-26T22:45:45.858Z,49.37
2019-03-26T22:48:15.044Z,47.72
2019-03-26T22:50:44.170Z,47.72
2019-03-26T22:53:13.365Z,47.57
2019-03-26T22:55:42.436Z,47.40
2019-03-26T22:58:11.582Z,47.42
2019-03-26T23:00:40.968Z,46.04
2019-03-26T23:03:10.137Z,46.90
2019-03-26T23:05:40.153Z,47.11
2019-03-26T23:08:09.292Z,49.88
2019-03-26T23:10:38.437Z,48.05
2019-03-26T23:13:07.591Z,48.51
2019-03-26T23:15:36.994Z,47.01
2019-03-26T23:18:06.137Z,46.03
2019-03-26T23:20:35.747Z,45.64
2019-03-26T23:23:04.905Z,45.54
2019-03-26T23:25:34.898Z,46.30
2019-03-26T23:28:04.069Z,46.36
2019-03-26T23:30:33.227Z,46.86
2019-03-26T23:33:02.355Z,46.14
2019-03-26T23:35:31.739Z,46.80
2019-03-26T23:38:00.944Z,45.74
2019-03-26T23:40:30.088Z,47.18
2019-03-26T23:42:59.311Z,47.29
2019-03-26T23:45:28.442Z,47.53
2019-03-26T23:47:58.282Z,46.48
2019-03-26T23:50:27.423Z,47.12
2019-03-26T23:52:56.896Z,47.48
2019-03-26T23:55:26.259Z,46.41
2019-03-26T23:57:55.394Z,46.60
